Etusivu
METAR-TAF:

METAR-TAF

Lentoasemat :

Lusaka, Sambia

Kenneth Kaundan kansainvälinen lentoasema

Leveyspiiri: 15-19-51S, Pituuspiiri: 028-27-09E, korkeus merenpinnasta: 1152 m

Tämänhetkinen sää

Tämä raportti tehtiin 1 tunti ja 7 minuuttia sitten, kello 18.00 UTC
Tuuli 2 kn idästä/kaakosta
Lämpötila 13°C
Kosteus 82%
Ilmanpaine 1025 hPa
Näkyvyys 10 km tai enemmän
ei pilviä alle 1500 m:ssä eikä cumulonimbus-pilviä

METAR: FLKK 231800Z 12002KT CAVOK 13/10 Q1025

Aika: 21:07 (19:07 UTC)


TAF: puuttuu

Säähavainnot ja -ennusteet yli 4000 lentoasemalta (METAR- ja TAF-raportit).

Käytössä olevat sääasemat on merkitty karttaan keltaisilla ja punaisilla pisteillä.

Aseta hiiri pisteen päälle nähdäksesi sääaseman nimen.

Klikkaa sitten nähdäksesi säähavainnot ja -ennusteet.

Kartan vaihtaminen: klikkaa mustalla rastilla varustettuja vihreitä pisteitä, niin voit zoomata sisään; viivalla varustettua vihreää pistettä, niin voit zoomata ulos tai vihreitä nuolia, niin pääset viereisille kartoille.


METAR-TAF: